sensor_id;sensor_type;location;lat;lon;timestamp;P1;durP1;ratioP1;P2;durP2;ratioP2
23728;SDS011;12045;60.214;24.724;2022-10-16T00:01:22;46.55;;;24.73;;
23728;SDS011;12045;60.214;24.724;2022-10-16T00:03:52;42.85;;;24.15;;
23728;SDS011;12045;60.214;24.724;2022-10-16T00:06:20;44.47;;;23.10;;
23728;SDS011;12045;60.214;24.724;2022-10-16T00:08:48;42.47;;;23.75;;
23728;SDS011;12045;60.214;24.724;2022-10-16T00:11:17;47.22;;;25.55;;
23728;SDS011;12045;60.214;24.724;2022-10-16T00:13:53;41.63;;;23.80;;
23728;SDS011;12045;60.214;24.724;2022-10-16T00:16:25;44.00;;;24.67;;
23728;SDS011;12045;60.214;24.724;2022-10-16T00:18:54;42.65;;;24.17;;
23728;SDS011;12045;60.214;24.724;2022-10-16T00:21:23;44.28;;;23.35;;
23728;SDS011;12045;60.214;24.724;2022-10-16T00:23:54;40.30;;;23.60;;
23728;SDS011;12045;60.214;24.724;2022-10-16T00:26:27;43.60;;;23.42;;
23728;SDS011;12045;60.214;24.724;2022-10-16T00:28:56;42.22;;;22.85;;
23728;SDS011;12045;60.214;24.724;2022-10-16T00:31:24;46.85;;;24.55;;
23728;SDS011;12045;60.214;24.724;2022-10-16T00:33:52;40.88;;;24.13;;
23728;SDS011;12045;60.214;24.724;2022-10-16T00:36:21;44.58;;;24.60;;
23728;SDS011;12045;60.214;24.724;2022-10-16T00:38:51;45.08;;;23.92;;
23728;SDS011;12045;60.214;24.724;2022-10-16T00:41:21;44.67;;;24.50;;
23728;SDS011;12045;60.214;24.724;2022-10-16T00:43:51;44.83;;;24.80;;
23728;SDS011;12045;60.214;24.724;2022-10-16T00:48:58;46.72;;;25.17;;
23728;SDS011;12045;60.214;24.724;2022-10-16T00:51:37;45.00;;;22.83;;
23728;SDS011;12045;60.214;24.724;2022-10-16T00:54:24;47.70;;;25.23;;
23728;SDS011;12045;60.214;24.724;2022-10-16T00:56:54;45.00;;;25.13;;
23728;SDS011;12045;60.214;24.724;2022-10-16T00:59:27;46.97;;;24.90;;
23728;SDS011;12045;60.214;24.724;2022-10-16T01:01:58;53.40;;;25.73;;
23728;SDS011;12045;60.214;24.724;2022-10-16T01:04:26;47.38;;;24.58;;
23728;SDS011;12045;60.214;24.724;2022-10-16T01:13:12;47.30;;;26.65;;
23728;SDS011;12045;60.214;24.724;2022-10-16T01:18:42;51.78;;;25.88;;
23728;SDS011;12045;60.214;24.724;2022-10-16T01:29:06;51.75;;;28.55;;
23728;SDS011;12045;60.214;24.724;2022-10-16T01:31:53;51.25;;;27.02;;
23728;SDS011;12045;60.214;24.724;2022-10-16T01:34:31;55.90;;;28.55;;
23728;SDS011;12045;60.214;24.724;2022-10-16T01:37:07;58.17;;;29.30;;
23728;SDS011;12045;60.214;24.724;2022-10-16T01:39:39;62.03;;;28.88;;
23728;SDS011;12045;60.214;24.724;2022-10-16T01:42:16;61.25;;;28.00;;
23728;SDS011;12045;60.214;24.724;2022-10-16T01:44:48;49.70;;;24.48;;
23728;SDS011;12045;60.214;24.724;2022-10-16T01:47:17;60.03;;;31.08;;
23728;SDS011;12045;60.214;24.724;2022-10-16T01:49:49;61.63;;;30.58;;
23728;SDS011;12045;60.214;24.724;2022-10-16T01:52:21;56.55;;;29.63;;
23728;SDS011;12045;60.214;24.724;2022-10-16T01:54:54;65.00;;;30.73;;
23728;SDS011;12045;60.214;24.724;2022-10-16T01:57:23;51.92;;;24.40;;
23728;SDS011;12045;60.214;24.724;2022-10-16T01:59:53;60.35;;;30.65;;
23728;SDS011;12045;60.214;24.724;2022-10-16T02:02:25;59.88;;;26.95;;
23728;SDS011;12045;60.214;24.724;2022-10-16T02:04:57;69.05;;;31.38;;
23728;SDS011;12045;60.214;24.724;2022-10-16T02:07:28;64.90;;;31.98;;
23728;SDS011;12045;60.214;24.724;2022-10-16T02:09:56;67.25;;;30.02;;
23728;SDS011;12045;60.214;24.724;2022-10-16T02:14:54;61.80;;;28.45;;
23728;SDS011;12045;60.214;24.724;2022-10-16T02:17:22;66.93;;;32.58;;
23728;SDS011;12045;60.214;24.724;2022-10-16T02:19:50;69.47;;;33.58;;
23728;SDS011;12045;60.214;24.724;2022-10-16T02:22:22;63.70;;;32.20;;
23728;SDS011;12045;60.214;24.724;2022-10-16T02:24:59;67.38;;;33.03;;
23728;SDS011;12045;60.214;24.724;2022-10-16T02:32:40;63.13;;;31.95;;
23728;SDS011;12045;60.214;24.724;2022-10-16T02:35:11;76.68;;;31.98;;
23728;SDS011;12045;60.214;24.724;2022-10-16T02:37:40;66.97;;;31.20;;
23728;SDS011;12045;60.214;24.724;2022-10-16T02:40:08;56.83;;;28.48;;
23728;SDS011;12045;60.214;24.724;2022-10-16T02:42:38;66.60;;;32.25;;
23728;SDS011;12045;60.214;24.724;2022-10-16T02:45:07;71.95;;;32.97;;
23728;SDS011;12045;60.214;24.724;2022-10-16T02:47:36;68.78;;;33.03;;
23728;SDS011;12045;60.214;24.724;2022-10-16T02:50:04;67.65;;;32.05;;
23728;SDS011;12045;60.214;24.724;2022-10-16T02:52:32;63.08;;;31.98;;
23728;SDS011;12045;60.214;24.724;2022-10-16T02:55:00;62.42;;;32.05;;
23728;SDS011;12045;60.214;24.724;2022-10-16T02:57:28;63.63;;;30.77;;
23728;SDS011;12045;60.214;24.724;2022-10-16T02:59:55;67.90;;;32.63;;
23728;SDS011;12045;60.214;24.724;2022-10-16T03:02:23;62.92;;;32.60;;
23728;SDS011;12045;60.214;24.724;2022-10-16T03:04:50;65.25;;;32.55;;
23728;SDS011;12045;60.214;24.724;2022-10-16T03:07:18;68.85;;;32.08;;
23728;SDS011;12045;60.214;24.724;2022-10-16T03:09:45;70.35;;;32.28;;
23728;SDS011;12045;60.214;24.724;2022-10-16T03:12:13;64.88;;;31.15;;
23728;SDS011;12045;60.214;24.724;2022-10-16T03:14:40;60.38;;;30.92;;
23728;SDS011;12045;60.214;24.724;2022-10-16T03:17:07;64.95;;;30.98;;
23728;SDS011;12045;60.214;24.724;2022-10-16T03:19:35;63.92;;;31.25;;
23728;SDS011;12045;60.214;24.724;2022-10-16T03:22:03;61.63;;;30.77;;
23728;SDS011;12045;60.214;24.724;2022-10-16T03:24:30;60.22;;;29.25;;
23728;SDS011;12045;60.214;24.724;2022-10-16T03:26:58;54.88;;;27.65;;
23728;SDS011;12045;60.214;24.724;2022-10-16T03:29:25;59.45;;;27.33;;
23728;SDS011;12045;60.214;24.724;2022-10-16T03:31:54;51.40;;;26.88;;
23728;SDS011;12045;60.214;24.724;2022-10-16T03:34:22;59.90;;;27.60;;
23728;SDS011;12045;60.214;24.724;2022-10-16T03:36:50;51.72;;;25.80;;
23728;SDS011;12045;60.214;24.724;2022-10-16T03:39:18;52.05;;;26.42;;
23728;SDS011;12045;60.214;24.724;2022-10-16T03:41:46;55.15;;;26.00;;
23728;SDS011;12045;60.214;24.724;2022-10-16T03:44:14;58.70;;;26.23;;
23728;SDS011;12045;60.214;24.724;2022-10-16T03:46:41;51.97;;;25.75;;
23728;SDS011;12045;60.214;24.724;2022-10-16T03:49:09;52.95;;;25.50;;
23728;SDS011;12045;60.214;24.724;2022-10-16T03:51:36;55.03;;;26.50;;
23728;SDS011;12045;60.214;24.724;2022-10-16T03:54:04;54.30;;;25.40;;
23728;SDS011;12045;60.214;24.724;2022-10-16T03:56:31;51.40;;;25.80;;
23728;SDS011;12045;60.214;24.724;2022-10-16T03:58:59;52.35;;;26.10;;
23728;SDS011;12045;60.214;24.724;2022-10-16T04:01:26;58.30;;;25.95;;
23728;SDS011;12045;60.214;24.724;2022-10-16T04:03:53;51.85;;;25.67;;
23728;SDS011;12045;60.214;24.724;2022-10-16T04:06:21;57.97;;;25.80;;
23728;SDS011;12045;60.214;24.724;2022-10-16T04:08:48;61.88;;;27.40;;
23728;SDS011;12045;60.214;24.724;2022-10-16T04:11:16;57.08;;;26.92;;
23728;SDS011;12045;60.214;24.724;2022-10-16T04:13:43;56.70;;;27.38;;
23728;SDS011;12045;60.214;24.724;2022-10-16T04:16:10;56.90;;;26.83;;
23728;SDS011;12045;60.214;24.724;2022-10-16T04:18:38;64.07;;;28.45;;
23728;SDS011;12045;60.214;24.724;2022-10-16T04:21:05;59.35;;;27.67;;
23728;SDS011;12045;60.214;24.724;2022-10-16T04:23:33;68.80;;;28.45;;
23728;SDS011;12045;60.214;24.724;2022-10-16T04:26:01;68.45;;;28.33;;
23728;SDS011;12045;60.214;24.724;2022-10-16T04:28:29;67.07;;;27.67;;
23728;SDS011;12045;60.214;24.724;2022-10-16T04:30:57;70.85;;;28.00;;
23728;SDS011;12045;60.214;24.724;2022-10-16T04:33:24;60.63;;;26.80;;
23728;SDS011;12045;60.214;24.724;2022-10-16T04:35:56;65.40;;;28.88;;
23728;SDS011;12045;60.214;24.724;2022-10-16T04:38:27;53.38;;;25.25;;
23728;SDS011;12045;60.214;24.724;2022-10-16T04:40:54;51.22;;;23.52;;
23728;SDS011;12045;60.214;24.724;2022-10-16T04:43:22;59.58;;;25.00;;
23728;SDS011;12045;60.214;24.724;2022-10-16T04:45:50;50.22;;;24.20;;
23728;SDS011;12045;60.214;24.724;2022-10-16T04:48:18;55.60;;;23.67;;
23728;SDS011;12045;60.214;24.724;2022-10-16T04:50:45;55.03;;;24.17;;
23728;SDS011;12045;60.214;24.724;2022-10-16T04:53:20;54.00;;;23.67;;
23728;SDS011;12045;60.214;24.724;2022-10-16T04:55:48;59.97;;;25.48;;
23728;SDS011;12045;60.214;24.724;2022-10-16T04:58:16;59.95;;;26.33;;
23728;SDS011;12045;60.214;24.724;2022-10-16T05:00:44;66.43;;;25.38;;
23728;SDS011;12045;60.214;24.724;2022-10-16T05:03:13;57.53;;;23.55;;
23728;SDS011;12045;60.214;24.724;2022-10-16T05:05:44;65.65;;;26.33;;
23728;SDS011;12045;60.214;24.724;2022-10-16T05:08:12;55.50;;;23.65;;
23728;SDS011;12045;60.214;24.724;2022-10-16T05:10:41;70.13;;;27.98;;
23728;SDS011;12045;60.214;24.724;2022-10-16T05:13:10;70.57;;;26.50;;
23728;SDS011;12045;60.214;24.724;2022-10-16T05:15:38;71.82;;;27.40;;
23728;SDS011;12045;60.214;24.724;2022-10-16T05:18:05;78.63;;;29.10;;
23728;SDS011;12045;60.214;24.724;2022-10-16T05:20:33;67.82;;;27.00;;
23728;SDS011;12045;60.214;24.724;2022-10-16T05:23:00;57.58;;;23.60;;
23728;SDS011;12045;60.214;24.724;2022-10-16T05:25:28;65.28;;;24.52;;
23728;SDS011;12045;60.214;24.724;2022-10-16T05:27:55;65.63;;;26.70;;
23728;SDS011;12045;60.214;24.724;2022-10-16T05:30:22;61.30;;;26.23;;
23728;SDS011;12045;60.214;24.724;2022-10-16T05:32:50;55.88;;;21.75;;
23728;SDS011;12045;60.214;24.724;2022-10-16T05:35:18;73.68;;;27.25;;
23728;SDS011;12045;60.214;24.724;2022-10-16T05:37:46;69.90;;;26.77;;
23728;SDS011;12045;60.214;24.724;2022-10-16T05:40:15;60.55;;;23.77;;
23728;SDS011;12045;60.214;24.724;2022-10-16T05:42:43;50.35;;;22.40;;
23728;SDS011;12045;60.214;24.724;2022-10-16T05:45:10;63.00;;;24.02;;
23728;SDS011;12045;60.214;24.724;2022-10-16T05:47:39;60.38;;;24.05;;
23728;SDS011;12045;60.214;24.724;2022-10-16T05:50:07;65.78;;;25.50;;
23728;SDS011;12045;60.214;24.724;2022-10-16T05:52:34;76.40;;;27.08;;
23728;SDS011;12045;60.214;24.724;2022-10-16T05:55:02;75.10;;;26.90;;
23728;SDS011;12045;60.214;24.724;2022-10-16T05:57:30;65.28;;;23.70;;
23728;SDS011;12045;60.214;24.724;2022-10-16T05:59:58;81.68;;;27.80;;
23728;SDS011;12045;60.214;24.724;2022-10-16T06:02:25;73.03;;;26.88;;
23728;SDS011;12045;60.214;24.724;2022-10-16T06:04:53;64.07;;;25.85;;
23728;SDS011;12045;60.214;24.724;2022-10-16T06:07:20;50.25;;;21.58;;
23728;SDS011;12045;60.214;24.724;2022-10-16T06:09:49;33.05;;;13.07;;
23728;SDS011;12045;60.214;24.724;2022-10-16T06:12:18;61.08;;;24.15;;
23728;SDS011;12045;60.214;24.724;2022-10-16T06:14:45;58.40;;;21.88;;
23728;SDS011;12045;60.214;24.724;2022-10-16T06:17:16;58.13;;;22.75;;
23728;SDS011;12045;60.214;24.724;2022-10-16T06:19:43;57.13;;;21.33;;
23728;SDS011;12045;60.214;24.724;2022-10-16T06:22:11;63.13;;;24.17;;
23728;SDS011;12045;60.214;24.724;2022-10-16T06:24:39;57.65;;;22.30;;
23728;SDS011;12045;60.214;24.724;2022-10-16T06:27:06;55.92;;;21.90;;
23728;SDS011;12045;60.214;24.724;2022-10-16T06:29:33;54.53;;;19.83;;
23728;SDS011;12045;60.214;24.724;2022-10-16T06:32:01;52.75;;;20.63;;
23728;SDS011;12045;60.214;24.724;2022-10-16T06:34:28;54.15;;;23.27;;
23728;SDS011;12045;60.214;24.724;2022-10-16T06:36:56;61.95;;;21.65;;
23728;SDS011;12045;60.214;24.724;2022-10-16T06:39:23;53.58;;;20.05;;
23728;SDS011;12045;60.214;24.724;2022-10-16T06:41:51;57.08;;;21.10;;
23728;SDS011;12045;60.214;24.724;2022-10-16T06:44:18;44.40;;;17.33;;
23728;SDS011;12045;60.214;24.724;2022-10-16T06:46:46;52.95;;;18.45;;
23728;SDS011;12045;60.214;24.724;2022-10-16T06:49:13;63.72;;;21.67;;
23728;SDS011;12045;60.214;24.724;2022-10-16T06:51:48;69.60;;;21.73;;
23728;SDS011;12045;60.214;24.724;2022-10-16T06:54:15;57.72;;;20.23;;
23728;SDS011;12045;60.214;24.724;2022-10-16T06:56:43;67.95;;;22.90;;
23728;SDS011;12045;60.214;24.724;2022-10-16T06:59:11;67.72;;;21.65;;
23728;SDS011;12045;60.214;24.724;2022-10-16T07:01:38;53.20;;;16.30;;
23728;SDS011;12045;60.214;24.724;2022-10-16T07:04:06;47.75;;;16.83;;
23728;SDS011;12045;60.214;24.724;2022-10-16T07:06:34;46.88;;;16.80;;
23728;SDS011;12045;60.214;24.724;2022-10-16T07:09:05;54.50;;;18.70;;
23728;SDS011;12045;60.214;24.724;2022-10-16T07:11:36;41.17;;;17.10;;
23728;SDS011;12045;60.214;24.724;2022-10-16T07:14:09;37.47;;;13.52;;
23728;SDS011;12045;60.214;24.724;2022-10-16T07:16:42;37.53;;;14.18;;
23728;SDS011;12045;60.214;24.724;2022-10-16T07:19:10;42.00;;;15.07;;
23728;SDS011;12045;60.214;24.724;2022-10-16T07:21:39;35.25;;;14.85;;
23728;SDS011;12045;60.214;24.724;2022-10-16T07:24:10;44.78;;;17.13;;
23728;SDS011;12045;60.214;24.724;2022-10-16T07:26:40;51.08;;;18.73;;
23728;SDS011;12045;60.214;24.724;2022-10-16T07:29:14;58.50;;;21.33;;
23728;SDS011;12045;60.214;24.724;2022-10-16T07:31:47;58.03;;;20.48;;
23728;SDS011;12045;60.214;24.724;2022-10-16T07:34:16;60.40;;;21.50;;
23728;SDS011;12045;60.214;24.724;2022-10-16T07:36:47;66.28;;;23.88;;
23728;SDS011;12045;60.214;24.724;2022-10-16T07:39:15;70.82;;;24.65;;
23728;SDS011;12045;60.214;24.724;2022-10-16T07:41:43;60.45;;;21.63;;
23728;SDS011;12045;60.214;24.724;2022-10-16T07:44:10;78.75;;;25.13;;
23728;SDS011;12045;60.214;24.724;2022-10-16T07:46:38;76.65;;;23.55;;
23728;SDS011;12045;60.214;24.724;2022-10-16T07:49:05;77.43;;;25.08;;
23728;SDS011;12045;60.214;24.724;2022-10-16T07:51:33;72.07;;;21.17;;
23728;SDS011;12045;60.214;24.724;2022-10-16T07:54:00;100.30;;;27.40;;
23728;SDS011;12045;60.214;24.724;2022-10-16T07:56:30;105.18;;;28.58;;
23728;SDS011;12045;60.214;24.724;2022-10-16T07:58:58;117.68;;;27.38;;
23728;SDS011;12045;60.214;24.724;2022-10-16T08:01:26;95.15;;;25.85;;
23728;SDS011;12045;60.214;24.724;2022-10-16T08:03:53;90.97;;;25.73;;
23728;SDS011;12045;60.214;24.724;2022-10-16T08:06:21;110.45;;;28.27;;
23728;SDS011;12045;60.214;24.724;2022-10-16T08:08:54;88.47;;;25.45;;
23728;SDS011;12045;60.214;24.724;2022-10-16T08:11:26;114.75;;;26.25;;
23728;SDS011;12045;60.214;24.724;2022-10-16T08:13:54;109.38;;;26.55;;
23728;SDS011;12045;60.214;24.724;2022-10-16T08:16:21;97.55;;;27.55;;
23728;SDS011;12045;60.214;24.724;2022-10-16T08:18:49;113.35;;;27.65;;
23728;SDS011;12045;60.214;24.724;2022-10-16T08:21:19;114.80;;;28.50;;
23728;SDS011;12045;60.214;24.724;2022-10-16T08:23:49;119.68;;;28.98;;
23728;SDS011;12045;60.214;24.724;2022-10-16T08:26:24;121.18;;;30.10;;
23728;SDS011;12045;60.214;24.724;2022-10-16T08:28:53;105.45;;;28.67;;
23728;SDS011;12045;60.214;24.724;2022-10-16T08:31:21;98.80;;;27.13;;
23728;SDS011;12045;60.214;24.724;2022-10-16T08:33:49;97.05;;;26.05;;
23728;SDS011;12045;60.214;24.724;2022-10-16T08:36:18;94.22;;;25.48;;
23728;SDS011;12045;60.214;24.724;2022-10-16T08:38:49;86.68;;;24.55;;
23728;SDS011;12045;60.214;24.724;2022-10-16T08:44:20;103.88;;;25.25;;
23728;SDS011;12045;60.214;24.724;2022-10-16T08:49:37;82.13;;;21.60;;
23728;SDS011;12045;60.214;24.724;2022-10-16T08:52:12;71.22;;;18.88;;
23728;SDS011;12045;60.214;24.724;2022-10-16T08:54:41;161.38;;;33.17;;
23728;SDS011;12045;60.214;24.724;2022-10-16T08:57:14;132.70;;;30.92;;
23728;SDS011;12045;60.214;24.724;2022-10-16T08:59:50;101.10;;;27.20;;
23728;SDS011;12045;60.214;24.724;2022-10-16T09:02:24;141.27;;;31.70;;
23728;SDS011;12045;60.214;24.724;2022-10-16T09:05:10;118.53;;;31.05;;
23728;SDS011;12045;60.214;24.724;2022-10-16T09:14:47;68.18;;;22.05;;
23728;SDS011;12045;60.214;24.724;2022-10-16T09:17:07;98.85;;;29.15;;
23728;SDS011;12045;60.214;24.724;2022-10-16T09:19:41;96.25;;;29.58;;
23728;SDS011;12045;60.214;24.724;2022-10-16T09:22:21;102.20;;;29.23;;
23728;SDS011;12045;60.214;24.724;2022-10-16T09:24:55;97.18;;;29.30;;
23728;SDS011;12045;60.214;24.724;2022-10-16T09:27:27;85.88;;;28.27;;
23728;SDS011;12045;60.214;24.724;2022-10-16T09:29:55;77.22;;;25.63;;
23728;SDS011;12045;60.214;24.724;2022-10-16T09:32:25;70.70;;;23.42;;
23728;SDS011;12045;60.214;24.724;2022-10-16T09:34:55;81.05;;;29.08;;
23728;SDS011;12045;60.214;24.724;2022-10-16T09:37:24;91.53;;;27.85;;
23728;SDS011;12045;60.214;24.724;2022-10-16T09:39:53;92.15;;;27.88;;
23728;SDS011;12045;60.214;24.724;2022-10-16T09:42:31;78.35;;;26.58;;
23728;SDS011;12045;60.214;24.724;2022-10-16T09:45:01;73.05;;;25.67;;
23728;SDS011;12045;60.214;24.724;2022-10-16T09:47:30;74.70;;;26.98;;
23728;SDS011;12045;60.214;24.724;2022-10-16T09:49:59;75.90;;;25.42;;
23728;SDS011;12045;60.214;24.724;2022-10-16T09:52:31;70.82;;;24.55;;
23728;SDS011;12045;60.214;24.724;2022-10-16T09:55:00;63.72;;;24.90;;
23728;SDS011;12045;60.214;24.724;2022-10-16T09:57:30;73.88;;;23.95;;
23728;SDS011;12045;60.214;24.724;2022-10-16T09:59:57;70.25;;;24.88;;
23728;SDS011;12045;60.214;24.724;2022-10-16T10:02:35;55.13;;;19.35;;
23728;SDS011;12045;60.214;24.724;2022-10-16T10:05:17;56.83;;;22.02;;
23728;SDS011;12045;60.214;24.724;2022-10-16T10:07:53;60.30;;;24.15;;
23728;SDS011;12045;60.214;24.724;2022-10-16T10:10:30;56.47;;;22.88;;
23728;SDS011;12045;60.214;24.724;2022-10-16T10:12:59;59.83;;;23.38;;
23728;SDS011;12045;60.214;24.724;2022-10-16T10:15:27;62.55;;;23.02;;
23728;SDS011;12045;60.214;24.724;2022-10-16T10:18:14;50.88;;;21.85;;
23728;SDS011;12045;60.214;24.724;2022-10-16T10:21:02;55.97;;;22.90;;
23728;SDS011;12045;60.214;24.724;2022-10-16T10:23:31;46.25;;;20.70;;
23728;SDS011;12045;60.214;24.724;2022-10-16T10:26:02;48.75;;;21.95;;
23728;SDS011;12045;60.214;24.724;2022-10-16T10:37:24;51.58;;;22.73;;
23728;SDS011;12045;60.214;24.724;2022-10-16T10:40:15;45.00;;;18.08;;
23728;SDS011;12045;60.214;24.724;2022-10-16T10:43:22;56.28;;;22.42;;
23728;SDS011;12045;60.214;24.724;2022-10-16T10:45:54;49.78;;;21.98;;
23728;SDS011;12045;60.214;24.724;2022-10-16T10:51:16;44.72;;;19.75;;
23728;SDS011;12045;60.214;24.724;2022-10-16T10:57:00;39.80;;;18.40;;
23728;SDS011;12045;60.214;24.724;2022-10-16T11:02:34;38.88;;;17.88;;
23728;SDS011;12045;60.214;24.724;2022-10-16T11:11:09;50.75;;;21.50;;
23728;SDS011;12045;60.214;24.724;2022-10-16T11:13:54;47.80;;;22.15;;
23728;SDS011;12045;60.214;24.724;2022-10-16T11:16:29;53.90;;;22.63;;
23728;SDS011;12045;60.214;24.724;2022-10-16T11:19:11;53.58;;;22.20;;
23728;SDS011;12045;60.214;24.724;2022-10-16T11:22:13;46.55;;;20.98;;
23728;SDS011;12045;60.214;24.724;2022-10-16T11:24:49;48.72;;;23.35;;
23728;SDS011;12045;60.214;24.724;2022-10-16T11:27:33;55.65;;;23.92;;
23728;SDS011;12045;60.214;24.724;2022-10-16T11:30:11;58.72;;;24.75;;
23728;SDS011;12045;60.214;24.724;2022-10-16T11:38:30;50.95;;;21.83;;
23728;SDS011;12045;60.214;24.724;2022-10-16T11:47:01;55.25;;;24.45;;
23728;SDS011;12045;60.214;24.724;2022-10-16T11:52:59;49.40;;;24.58;;
23728;SDS011;12045;60.214;24.724;2022-10-16T11:55:44;53.25;;;24.65;;
23728;SDS011;12045;60.214;24.724;2022-10-16T11:58:30;59.70;;;25.80;;
23728;SDS011;12045;60.214;24.724;2022-10-16T12:06:12;67.50;;;27.42;;
23728;SDS011;12045;60.214;24.724;2022-10-16T12:08:46;58.83;;;24.88;;
23728;SDS011;12045;60.214;24.724;2022-10-16T12:14:06;67.80;;;29.05;;
23728;SDS011;12045;60.214;24.724;2022-10-16T12:16:50;65.88;;;27.65;;
23728;SDS011;12045;60.214;24.724;2022-10-16T12:19:24;63.70;;;25.83;;
23728;SDS011;12045;60.214;24.724;2022-10-16T12:21:54;61.20;;;25.55;;
23728;SDS011;12045;60.214;24.724;2022-10-16T12:24:39;56.90;;;24.05;;
23728;SDS011;12045;60.214;24.724;2022-10-16T12:30:06;59.63;;;24.58;;
23728;SDS011;12045;60.214;24.724;2022-10-16T12:32:52;53.40;;;23.25;;
23728;SDS011;12045;60.214;24.724;2022-10-16T12:35:23;58.67;;;25.92;;
23728;SDS011;12045;60.214;24.724;2022-10-16T12:37:53;62.20;;;26.25;;
23728;SDS011;12045;60.214;24.724;2022-10-16T12:40:32;62.08;;;26.58;;
23728;SDS011;12045;60.214;24.724;2022-10-16T12:43:10;59.42;;;26.73;;
23728;SDS011;12045;60.214;24.724;2022-10-16T12:46:05;55.78;;;25.42;;
23728;SDS011;12045;60.214;24.724;2022-10-16T12:48:48;51.75;;;24.65;;
23728;SDS011;12045;60.214;24.724;2022-10-16T12:51:35;51.60;;;25.40;;
23728;SDS011;12045;60.214;24.724;2022-10-16T12:57:43;51.53;;;24.20;;
23728;SDS011;12045;60.214;24.724;2022-10-16T13:00:21;33.67;;;16.58;;
23728;SDS011;12045;60.214;24.724;2022-10-16T13:06:08;47.90;;;24.02;;
23728;SDS011;12045;60.214;24.724;2022-10-16T13:08:58;46.25;;;23.02;;
23728;SDS011;12045;60.214;24.724;2022-10-16T13:11:57;41.05;;;21.58;;
23728;SDS011;12045;60.214;24.724;2022-10-16T13:17:37;43.83;;;21.58;;
23728;SDS011;12045;60.214;24.724;2022-10-16T13:22:46;43.45;;;19.85;;
23728;SDS011;12045;60.214;24.724;2022-10-16T13:27:52;57.75;;;27.48;;
23728;SDS011;12045;60.214;24.724;2022-10-16T13:30:24;64.30;;;27.17;;
23728;SDS011;12045;60.214;24.724;2022-10-16T13:33:01;65.93;;;28.10;;
23728;SDS011;12045;60.214;24.724;2022-10-16T13:35:50;60.88;;;26.77;;
23728;SDS011;12045;60.214;24.724;2022-10-16T13:38:20;53.08;;;21.80;;
23728;SDS011;12045;60.214;24.724;2022-10-16T13:43:18;75.68;;;28.67;;
23728;SDS011;12045;60.214;24.724;2022-10-16T13:45:59;69.38;;;27.92;;
23728;SDS011;12045;60.214;24.724;2022-10-16T13:48:32;63.13;;;25.23;;
23728;SDS011;12045;60.214;24.724;2022-10-16T13:51:01;70.57;;;28.63;;
23728;SDS011;12045;60.214;24.724;2022-10-16T13:53:34;68.55;;;25.60;;
23728;SDS011;12045;60.214;24.724;2022-10-16T13:56:04;69.88;;;27.60;;
23728;SDS011;12045;60.214;24.724;2022-10-16T13:58:33;64.25;;;21.67;;
23728;SDS011;12045;60.214;24.724;2022-10-16T14:01:02;56.75;;;21.67;;
23728;SDS011;12045;60.214;24.724;2022-10-16T14:03:34;68.45;;;24.83;;
23728;SDS011;12045;60.214;24.724;2022-10-16T14:06:03;50.00;;;20.17;;
23728;SDS011;12045;60.214;24.724;2022-10-16T14:08:33;61.30;;;22.85;;
23728;SDS011;12045;60.214;24.724;2022-10-16T14:11:01;53.35;;;19.92;;
23728;SDS011;12045;60.214;24.724;2022-10-16T14:13:30;57.00;;;22.63;;
23728;SDS011;12045;60.214;24.724;2022-10-16T14:16:05;66.72;;;23.40;;
23728;SDS011;12045;60.214;24.724;2022-10-16T14:18:35;69.82;;;24.20;;
23728;SDS011;12045;60.214;24.724;2022-10-16T14:21:06;71.78;;;24.42;;
23728;SDS011;12045;60.214;24.724;2022-10-16T14:23:39;54.45;;;20.30;;
23728;SDS011;12045;60.214;24.724;2022-10-16T14:28:35;45.08;;;17.48;;
23728;SDS011;12045;60.214;24.724;2022-10-16T14:31:19;55.58;;;21.48;;
23728;SDS011;12045;60.214;24.724;2022-10-16T14:33:54;49.40;;;20.05;;
23728;SDS011;12045;60.214;24.724;2022-10-16T14:36:21;37.78;;;14.57;;
23728;SDS011;12045;60.214;24.724;2022-10-16T14:39:00;48.35;;;17.95;;
23728;SDS011;12045;60.214;24.724;2022-10-16T14:41:42;48.10;;;18.33;;
23728;SDS011;12045;60.214;24.724;2022-10-16T14:44:12;55.00;;;19.98;;
23728;SDS011;12045;60.214;24.724;2022-10-16T14:46:41;53.70;;;19.67;;
23728;SDS011;12045;60.214;24.724;2022-10-16T14:49:13;64.65;;;22.05;;
23728;SDS011;12045;60.214;24.724;2022-10-16T14:51:44;70.45;;;21.75;;
23728;SDS011;12045;60.214;24.724;2022-10-16T14:54:13;53.33;;;16.75;;
23728;SDS011;12045;60.214;24.724;2022-10-16T14:59:37;67.53;;;22.30;;
23728;SDS011;12045;60.214;24.724;2022-10-16T15:04:54;56.83;;;19.23;;
23728;SDS011;12045;60.214;24.724;2022-10-16T15:07:21;45.95;;;16.05;;
23728;SDS011;12045;60.214;24.724;2022-10-16T15:09:50;53.13;;;19.05;;
23728;SDS011;12045;60.214;24.724;2022-10-16T15:12:18;60.53;;;19.88;;
23728;SDS011;12045;60.214;24.724;2022-10-16T15:14:46;56.35;;;19.15;;
23728;SDS011;12045;60.214;24.724;2022-10-16T15:17:13;48.33;;;16.98;;
23728;SDS011;12045;60.214;24.724;2022-10-16T15:19:45;36.45;;;12.98;;
23728;SDS011;12045;60.214;24.724;2022-10-16T15:22:12;41.35;;;15.82;;
23728;SDS011;12045;60.214;24.724;2022-10-16T15:24:40;45.78;;;17.92;;
23728;SDS011;12045;60.214;24.724;2022-10-16T15:27:08;51.35;;;19.08;;
23728;SDS011;12045;60.214;24.724;2022-10-16T15:29:35;55.63;;;20.13;;
23728;SDS011;12045;60.214;24.724;2022-10-16T15:32:03;60.30;;;20.55;;
23728;SDS011;12045;60.214;24.724;2022-10-16T15:34:31;50.83;;;18.55;;
23728;SDS011;12045;60.214;24.724;2022-10-16T15:36:58;53.15;;;19.42;;
23728;SDS011;12045;60.214;24.724;2022-10-16T15:39:30;53.38;;;20.23;;
23728;SDS011;12045;60.214;24.724;2022-10-16T15:41:58;56.83;;;19.55;;
23728;SDS011;12045;60.214;24.724;2022-10-16T15:44:25;57.25;;;22.10;;
23728;SDS011;12045;60.214;24.724;2022-10-16T15:46:57;61.65;;;22.23;;
23728;SDS011;12045;60.214;24.724;2022-10-16T15:49:24;70.55;;;21.45;;
23728;SDS011;12045;60.214;24.724;2022-10-16T15:51:54;57.33;;;20.83;;
23728;SDS011;12045;60.214;24.724;2022-10-16T15:54:22;52.42;;;20.42;;
23728;SDS011;12045;60.214;24.724;2022-10-16T15:56:49;60.13;;;21.10;;
23728;SDS011;12045;60.214;24.724;2022-10-16T15:59:17;57.78;;;20.63;;
23728;SDS011;12045;60.214;24.724;2022-10-16T16:01:45;51.35;;;19.00;;
23728;SDS011;12045;60.214;24.724;2022-10-16T16:04:12;46.28;;;17.70;;
23728;SDS011;12045;60.214;24.724;2022-10-16T16:07:00;50.70;;;19.73;;
23728;SDS011;12045;60.214;24.724;2022-10-16T16:09:28;42.97;;;16.77;;
23728;SDS011;12045;60.214;24.724;2022-10-16T16:11:56;50.08;;;19.20;;
23728;SDS011;12045;60.214;24.724;2022-10-16T16:14:27;41.70;;;17.52;;
23728;SDS011;12045;60.214;24.724;2022-10-16T16:16:55;49.72;;;18.08;;
23728;SDS011;12045;60.214;24.724;2022-10-16T16:19:23;49.95;;;17.42;;
23728;SDS011;12045;60.214;24.724;2022-10-16T16:21:54;47.03;;;17.30;;
23728;SDS011;12045;60.214;24.724;2022-10-16T16:24:21;39.90;;;16.27;;
23728;SDS011;12045;60.214;24.724;2022-10-16T16:26:49;45.92;;;18.05;;